上海/浦東 の空港の天気 - METARとTAF

上海浦東国際空港 ( ZSPD / PVG ) - 中国 上海市
飛行場実況気象(Metar)
観測時間03/21 03:00 CST (03/20 19:00 UTC)
風向・風速北西 5m/s
視程6000m
天気現象
なし
気温16℃
湿度88%
気圧1010hPa
METARZSPD 201900Z 32005MPS 6000 NSC 16/14 Q1010 NOSIG
過去の天気等 Google飛行場航空写真 Wunderground天気予報

過去48時間のMETAR

飛行場予報(TAF)
発表時間: 3/20 23:16 CST (3/20 15:16 UTC)
予報対象時間: 21日2時 CST ~ 22日2時 CST
風向・風速北北西 4m/s
視程6000m
全天の8割程度の雲 雲底高度 340m
21日15時 CST ~ 21日16時 CST に徐々に
風向・風速北北東 5m/s
TAF ZSPD 201516Z 2018/2118 33004MPS 6000 BKN011 TX18/2106Z TN13/2021Z
BECMG 2107/2108 03005MPS